createdAt,value
2022-12-13T00:01:56.518Z,-0.50
2022-12-13T00:04:25.286Z,-0.50
2022-12-13T00:06:54.091Z,-0.60
2022-12-13T00:09:24.457Z,-0.50
2022-12-13T00:14:25.168Z,-0.70
2022-12-13T00:16:52.109Z,-0.70
2022-12-13T00:19:19.694Z,-0.70
2022-12-13T00:21:46.945Z,-0.80
2022-12-13T00:24:14.673Z,-0.70
2022-12-13T00:26:41.699Z,-0.70
2022-12-13T00:29:08.801Z,-0.60
2022-12-13T00:31:58.617Z,-0.60
2022-12-13T00:34:23.478Z,-0.60
2022-12-13T00:36:51.021Z,-0.70
2022-12-13T00:39:19.349Z,-0.80
2022-12-13T00:41:47.070Z,-0.80
2022-12-13T00:44:14.676Z,-0.80
2022-12-13T00:46:42.394Z,-0.90
2022-12-13T00:49:11.749Z,-1.00
2022-12-13T00:51:39.158Z,-0.80
2022-12-13T00:54:06.623Z,-0.80
2022-12-13T00:56:34.250Z,-0.70
2022-12-13T00:59:01.670Z,-0.80
2022-12-13T01:01:32.165Z,-0.90
2022-12-13T01:04:01.011Z,-0.80
2022-12-13T01:06:29.603Z,-0.90
2022-12-13T01:08:56.667Z,-0.90
2022-12-13T01:11:23.621Z,-1.00
2022-12-13T01:13:53.284Z,-0.90
2022-12-13T01:16:22.901Z,-1.00
2022-12-13T01:18:49.868Z,-1.10
2022-12-13T01:21:18.943Z,-1.00
2022-12-13T01:23:45.899Z,-1.10
2022-12-13T01:26:19.842Z,-1.00
2022-12-13T01:28:47.599Z,-1.00
2022-12-13T01:31:18.296Z,-1.10
2022-12-13T01:33:45.742Z,-1.40
2022-12-13T01:36:16.167Z,-1.30
2022-12-13T01:38:43.023Z,-1.20
2022-12-13T01:41:17.805Z,-1.10
2022-12-13T01:43:48.106Z,-1.10
2022-12-13T01:46:17.073Z,-1.10
2022-12-13T01:49:04.071Z,-1.10
2022-12-13T01:51:44.564Z,-1.10
2022-12-13T01:54:20.958Z,-1.20
2022-12-13T01:56:53.555Z,-1.40
2022-12-13T01:59:28.862Z,-1.40
2022-12-13T02:02:01.010Z,-1.60
2022-12-13T02:04:44.344Z,-1.40
2022-12-13T02:07:22.934Z,-1.20
2022-12-13T02:09:56.824Z,-1.20
2022-12-13T02:12:30.467Z,-1.20
2022-12-13T02:15:11.809Z,-1.20
2022-12-13T02:18:11.971Z,-1.30
2022-12-13T02:21:07.064Z,-1.30
2022-12-13T02:24:11.654Z,-1.40
2022-12-13T02:26:44.342Z,-1.40
2022-12-13T02:29:30.708Z,-1.40
2022-12-13T02:32:35.489Z,-1.50
2022-12-13T02:35:26.090Z,-1.40
2022-12-13T02:38:29.427Z,-1.40
2022-12-13T02:41:13.839Z,-1.50
2022-12-13T02:44:12.993Z,-1.40
2022-12-13T02:47:05.830Z,-1.40
2022-12-13T02:49:43.990Z,-1.60
2022-12-13T02:52:12.823Z,-1.50
2022-12-13T02:54:42.667Z,-1.50
2022-12-13T02:57:31.222Z,-1.40
2022-12-13T03:00:07.316Z,-1.50
2022-12-13T03:02:52.995Z,-1.50
2022-12-13T03:06:12.332Z,-1.60
2022-12-13T03:08:47.704Z,-1.60
2022-12-13T03:11:17.704Z,-1.40
2022-12-13T03:13:54.949Z,-1.50
2022-12-13T03:16:28.121Z,-1.50
2022-12-13T03:18:59.239Z,-1.60
2022-12-13T03:21:26.932Z,-1.60
2022-12-13T03:23:54.057Z,-1.70
2022-12-13T03:26:27.437Z,-1.60
2022-12-13T03:28:57.453Z,-1.60
2022-12-13T03:34:43.684Z,-1.70
2022-12-13T03:37:40.632Z,-1.70
2022-12-13T03:40:16.654Z,-2.00
2022-12-13T03:43:00.973Z,-1.70
2022-12-13T03:45:35.362Z,-1.70
2022-12-13T03:48:14.803Z,-1.90
2022-12-13T03:51:04.058Z,-1.70
2022-12-13T03:59:40.129Z,-1.70
2022-12-13T04:02:31.445Z,-1.70
2022-12-13T04:17:01.744Z,-1.80
2022-12-13T04:19:35.598Z,-1.80
2022-12-13T04:24:53.327Z,-1.90
2022-12-13T04:27:20.927Z,-1.90
2022-12-13T04:29:47.953Z,-1.90
2022-12-13T04:32:26.002Z,-1.90
2022-12-13T04:35:00.784Z,-2.00
2022-12-13T04:37:29.219Z,-2.00
2022-12-13T04:40:00.812Z,-2.00
2022-12-13T04:42:28.495Z,-2.00
2022-12-13T04:44:55.380Z,-2.00
2022-12-13T04:49:51.166Z,-2.10
2022-12-13T04:52:22.139Z,-2.00
2022-12-13T04:54:56.152Z,-2.00
2022-12-13T04:57:23.507Z,-2.10
2022-12-13T04:59:50.762Z,-2.00
2022-12-13T05:02:23.608Z,-2.00
2022-12-13T05:04:54.372Z,-1.90
2022-12-13T05:07:22.352Z,-2.10
2022-12-13T05:09:51.085Z,-2.10
2022-12-13T05:12:22.611Z,-2.10
2022-12-13T05:14:51.883Z,-2.20
2022-12-13T05:17:21.855Z,-2.20
2022-12-13T05:19:48.736Z,-2.20
2022-12-13T05:22:19.876Z,-2.10
2022-12-13T05:24:47.582Z,-2.10
2022-12-13T05:27:24.543Z,-2.20
2022-12-13T05:30:03.189Z,-2.20
2022-12-13T05:32:42.765Z,-2.20
2022-12-13T05:35:13.137Z,-2.20
2022-12-13T05:37:40.315Z,-2.60
2022-12-13T05:40:11.863Z,-2.70
2022-12-13T05:42:39.267Z,-3.00
2022-12-13T05:47:34.934Z,-3.10
2022-12-13T05:50:01.840Z,-3.10
2022-12-13T05:52:31.192Z,-3.10
2022-12-13T05:55:00.861Z,-3.00
2022-12-13T05:57:28.671Z,-2.70
2022-12-13T05:59:55.765Z,-2.80
2022-12-13T06:02:23.006Z,-3.00
2022-12-13T06:04:50.748Z,-2.90
2022-12-13T06:07:17.947Z,-2.80
2022-12-13T06:09:44.744Z,-2.80
2022-12-13T06:12:31.130Z,-2.70
2022-12-13T06:15:01.343Z,-2.90
2022-12-13T06:17:36.518Z,-3.00
2022-12-13T06:20:23.280Z,-3.20
2022-12-13T06:22:53.649Z,-3.20
2022-12-13T06:25:30.779Z,-3.20
2022-12-13T06:28:00.939Z,-3.30
2022-12-13T06:30:29.457Z,-3.20
2022-12-13T06:32:57.184Z,-3.10
2022-12-13T06:35:29.155Z,-3.10
2022-12-13T06:38:01.923Z,-3.30
2022-12-13T06:40:32.082Z,-3.40
2022-12-13T06:42:58.913Z,-3.40
2022-12-13T06:45:26.251Z,-3.40
2022-12-13T06:47:53.120Z,-3.30
2022-12-13T06:50:22.964Z,-3.40
2022-12-13T06:52:49.913Z,-3.40
2022-12-13T06:55:23.966Z,-3.10
2022-12-13T06:57:51.787Z,-2.80
2022-12-13T07:00:22.695Z,-2.80
2022-12-13T07:02:55.290Z,-2.90
2022-12-13T07:05:22.762Z,-2.70
2022-12-13T07:07:49.689Z,-2.60
2022-12-13T07:10:22.076Z,-2.70
2022-12-13T07:12:49.965Z,-2.70
2022-12-13T07:15:16.898Z,-2.80
2022-12-13T07:17:43.952Z,-2.90
2022-12-13T07:20:11.571Z,-2.70
2022-12-13T07:22:46.619Z,-2.70
2022-12-13T07:25:26.742Z,-2.70
2022-12-13T07:28:01.114Z,-2.60
2022-12-13T07:30:28.758Z,-2.90
2022-12-13T07:32:55.592Z,-2.80
2022-12-13T07:35:22.377Z,-2.90
2022-12-13T07:37:51.520Z,-2.90
2022-12-13T07:40:18.357Z,-3.00
2022-12-13T07:42:56.040Z,-3.00
2022-12-13T07:45:24.005Z,-2.90
2022-12-13T07:47:53.864Z,-2.90
2022-12-13T07:50:24.031Z,-3.10
2022-12-13T07:52:52.541Z,-3.00
2022-12-13T07:55:23.109Z,-2.90
2022-12-13T07:58:18.843Z,-2.90
2022-12-13T08:00:46.831Z,-2.90
2022-12-13T08:03:25.409Z,-2.90
2022-12-13T08:05:59.773Z,-2.80
2022-12-13T08:08:31.194Z,-3.00
2022-12-13T08:11:17.466Z,-3.10
2022-12-13T08:13:44.608Z,-3.00
2022-12-13T08:16:26.259Z,-3.00
2022-12-13T08:19:01.007Z,-3.20
2022-12-13T08:21:54.136Z,-3.10
2022-12-13T08:24:22.337Z,-3.00
2022-12-13T08:26:51.984Z,-3.00
2022-12-13T08:29:23.139Z,-3.20
2022-12-13T08:32:05.858Z,-3.00
2022-12-13T08:34:32.769Z,-2.90
2022-12-13T08:37:01.599Z,-3.10
2022-12-13T08:39:36.246Z,-3.00
2022-12-13T08:42:18.276Z,-2.90
2022-12-13T08:44:53.118Z,-2.90
2022-12-13T08:47:24.507Z,-3.00
2022-12-13T08:50:04.079Z,-2.90
2022-12-13T08:52:42.201Z,-2.80
2022-12-13T08:55:12.929Z,-3.00
2022-12-13T08:57:41.969Z,-3.00
2022-12-13T09:00:12.917Z,-2.90
2022-12-13T09:02:40.163Z,-3.00
2022-12-13T09:05:08.481Z,-2.90
2022-12-13T09:07:36.520Z,-2.80
2022-12-13T09:10:07.187Z,-2.90
2022-12-13T09:12:53.737Z,-2.80
2022-12-13T09:15:29.518Z,-2.80
2022-12-13T09:18:04.364Z,-2.70
2022-12-13T09:20:40.414Z,-2.70
2022-12-13T09:23:14.143Z,-2.60
2022-12-13T09:25:56.137Z,-2.60
2022-12-13T09:28:34.244Z,-2.60
2022-12-13T09:31:01.090Z,-2.50
2022-12-13T09:33:30.722Z,-2.50
2022-12-13T09:35:57.792Z,-2.60
2022-12-13T09:38:24.665Z,-2.40
2022-12-13T09:40:58.663Z,-2.50
2022-12-13T09:43:32.719Z,-2.50
2022-12-13T09:46:13.221Z,-2.50
2022-12-13T09:49:01.750Z,-2.50
2022-12-13T09:51:43.123Z,-2.40
2022-12-13T09:54:20.886Z,-2.40
2022-12-13T09:56:54.590Z,-2.30
2022-12-13T09:59:35.041Z,-2.30
2022-12-13T10:02:29.492Z,-2.20
2022-12-13T10:05:33.884Z,-2.10
2022-12-13T10:08:14.536Z,-2.10
2022-12-13T10:10:43.608Z,-2.00
2022-12-13T10:13:22.470Z,-2.10
2022-12-13T10:16:06.721Z,-2.00
2022-12-13T10:18:36.943Z,-2.00
2022-12-13T10:21:22.119Z,-2.00
2022-12-13T10:26:38.286Z,-1.90
2022-12-13T10:29:06.543Z,-1.80
2022-12-13T10:31:47.534Z,-1.80
2022-12-13T10:34:26.977Z,-1.80
2022-12-13T10:37:09.189Z,-1.60
2022-12-13T10:39:43.597Z,-1.50
2022-12-13T10:42:23.372Z,-1.50
2022-12-13T10:45:43.300Z,-1.40
2022-12-13T10:48:39.454Z,-1.30
2022-12-13T10:51:12.089Z,-1.30
2022-12-13T10:53:55.158Z,-1.20
2022-12-13T10:56:32.597Z,-1.10
2022-12-13T10:59:18.118Z,-1.00
2022-12-13T11:01:45.638Z,-1.00
2022-12-13T11:04:33.038Z,-0.90
2022-12-13T11:07:20.950Z,-0.80
2022-12-13T11:09:52.491Z,-0.80
2022-12-13T11:12:27.593Z,-0.60
2022-12-13T11:15:00.625Z,-0.50
2022-12-13T11:17:31.785Z,-0.50
2022-12-13T11:20:02.936Z,-0.40
2022-12-13T11:22:34.371Z,-0.30
2022-12-13T11:25:23.155Z,-0.30
2022-12-13T11:28:26.786Z,-0.10
2022-12-13T11:31:14.043Z,0.10
2022-12-13T11:34:14.276Z,0.10
2022-12-13T11:36:59.777Z,0.20
2022-12-13T11:39:33.996Z,0.20
2022-12-13T11:42:18.551Z,0.20
2022-12-13T11:45:01.523Z,0.30
2022-12-13T11:47:39.234Z,0.20
2022-12-13T11:50:33.592Z,0.30
2022-12-13T11:53:21.161Z,0.40
2022-12-13T11:56:02.051Z,0.60
2022-12-13T11:59:02.907Z,0.60
2022-12-13T12:01:43.120Z,0.70
2022-12-13T12:04:32.303Z,0.90
2022-12-13T12:07:31.895Z,0.90
2022-12-13T12:10:06.632Z,0.90
2022-12-13T12:12:36.538Z,1.00
2022-12-13T12:15:27.130Z,1.00
2022-12-13T12:17:56.129Z,1.00
2022-12-13T12:20:37.744Z,1.30
2022-12-13T12:23:28.087Z,1.50
2022-12-13T12:26:05.713Z,1.60
2022-12-13T12:28:51.197Z,2.10
2022-12-13T12:31:51.305Z,2.50
2022-12-13T12:34:46.203Z,3.50
2022-12-13T12:37:25.025Z,3.30
2022-12-13T12:40:13.302Z,3.40
2022-12-13T12:43:14.133Z,3.60
2022-12-13T12:46:00.311Z,3.60
2022-12-13T12:49:26.921Z,3.80
2022-12-13T12:51:55.844Z,3.90
2022-12-13T12:54:35.786Z,3.60
2022-12-13T12:57:25.884Z,4.10
2022-12-13T13:00:16.793Z,4.40
2022-12-13T13:02:50.603Z,3.80
2022-12-13T13:05:40.217Z,3.60
2022-12-13T13:08:18.274Z,3.80
2022-12-13T13:10:49.680Z,4.00
2022-12-13T13:13:47.400Z,3.70
2022-12-13T13:16:35.948Z,2.90
2022-12-13T13:19:31.478Z,2.90
2022-12-13T13:22:01.483Z,2.70
2022-12-13T13:24:30.189Z,2.80
2022-12-13T13:26:59.560Z,2.80
2022-12-13T13:29:31.309Z,2.60
2022-12-13T13:32:28.821Z,2.50
2022-12-13T13:35:28.793Z,2.40
2022-12-13T13:37:57.264Z,2.40
2022-12-13T13:40:36.837Z,2.40
2022-12-13T13:43:12.775Z,2.20
2022-12-13T13:46:11.623Z,2.10
2022-12-13T13:49:04.969Z,2.20
2022-12-13T13:55:01.400Z,2.20
2022-12-13T13:58:08.926Z,2.10
2022-12-13T14:00:53.024Z,2.20
2022-12-13T14:03:57.504Z,2.10
2022-12-13T14:06:45.756Z,2.10
2022-12-13T14:09:33.131Z,2.10
2022-12-13T14:12:33.164Z,2.00
2022-12-13T14:15:20.200Z,1.90
2022-12-13T14:18:14.789Z,1.90
2022-12-13T14:21:07.071Z,1.90
2022-12-13T14:26:29.142Z,1.80
2022-12-13T14:29:01.596Z,1.80
2022-12-13T14:31:43.537Z,1.80
2022-12-13T14:34:31.536Z,1.70
2022-12-13T14:37:03.672Z,1.70
2022-12-13T14:39:34.258Z,1.60
2022-12-13T14:42:26.035Z,1.60
2022-12-13T14:44:53.765Z,1.60
2022-12-13T14:47:22.093Z,1.60
2022-12-13T14:49:55.289Z,1.60
2022-12-13T14:52:26.695Z,1.60
2022-12-13T14:55:00.342Z,1.50
2022-12-13T14:57:29.533Z,1.50
2022-12-13T14:59:58.529Z,1.50
2022-12-13T15:02:32.276Z,1.40
2022-12-13T15:05:02.249Z,1.40
2022-12-13T15:07:37.636Z,1.30
2022-12-13T15:10:20.141Z,1.20
2022-12-13T15:12:48.068Z,1.20
2022-12-13T15:15:22.625Z,1.20
2022-12-13T15:17:51.246Z,1.00
2022-12-13T15:20:33.733Z,1.00
2022-12-13T15:23:11.691Z,1.00
2022-12-13T15:25:40.686Z,0.90
2022-12-13T15:28:10.822Z,0.90
2022-12-13T15:30:39.279Z,0.90
2022-12-13T15:33:33.523Z,0.80
2022-12-13T15:36:14.008Z,0.80
2022-12-13T15:39:01.525Z,0.90
2022-12-13T15:41:28.465Z,0.80
2022-12-13T15:43:59.959Z,0.70
2022-12-13T15:46:44.167Z,0.70
2022-12-13T15:49:41.869Z,0.60
2022-12-13T15:52:14.737Z,0.70
2022-12-13T15:54:42.807Z,0.60
2022-12-13T15:57:22.989Z,0.60
2022-12-13T16:00:04.881Z,0.60
2022-12-13T16:02:31.934Z,0.60
2022-12-13T16:05:10.168Z,0.50
2022-12-13T16:07:40.458Z,0.50
2022-12-13T16:10:08.840Z,0.50
2022-12-13T16:12:47.544Z,0.50
2022-12-13T16:15:29.180Z,0.50
2022-12-13T16:18:15.220Z,0.40
2022-12-13T16:20:44.225Z,0.40
2022-12-13T16:23:11.195Z,0.50
2022-12-13T16:25:53.677Z,0.40
2022-12-13T16:28:25.860Z,0.40
2022-12-13T16:30:53.493Z,0.40
2022-12-13T16:33:28.132Z,0.40
2022-12-13T16:35:56.503Z,0.40
2022-12-13T16:38:26.669Z,0.30
2022-12-13T16:40:56.644Z,0.30
2022-12-13T16:43:33.323Z,0.30
2022-12-13T16:47:10.143Z,0.30
2022-12-13T16:48:51.434Z,0.30
2022-12-13T16:51:18.641Z,0.20
2022-12-13T16:53:48.477Z,0.30
2022-12-13T16:56:21.553Z,0.20
2022-12-13T16:58:50.653Z,0.20
2022-12-13T17:01:33.109Z,0.20
2022-12-13T17:04:00.092Z,0.20
2022-12-13T17:06:27.346Z,0.20
2022-12-13T17:08:54.632Z,0.10
2022-12-13T17:11:22.288Z,0.20
2022-12-13T17:13:49.880Z,0.10
2022-12-13T17:16:16.838Z,0.20
2022-12-13T17:18:46.670Z,0.00
2022-12-13T17:21:15.707Z,0.10
2022-12-13T17:23:57.258Z,0.10
2022-12-13T17:26:24.379Z,0.10
2022-12-13T17:28:54.903Z,0.00
2022-12-13T17:31:22.164Z,0.00
2022-12-13T17:33:49.450Z,0.00
2022-12-13T17:36:17.266Z,0.00
2022-12-13T17:38:45.931Z,0.10
2022-12-13T17:41:14.047Z,0.00
2022-12-13T17:43:42.105Z,0.00
2022-12-13T17:46:15.263Z,-0.10
2022-12-13T17:48:42.958Z,0.00
2022-12-13T17:51:13.283Z,0.00
2022-12-13T17:53:43.920Z,-0.10
2022-12-13T17:56:13.563Z,0.00
2022-12-13T17:58:42.884Z,-0.10
2022-12-13T18:01:21.010Z,-0.10
2022-12-13T18:03:51.338Z,-0.10
2022-12-13T18:06:18.642Z,-0.10
2022-12-13T18:08:46.767Z,-0.10
2022-12-13T18:11:33.310Z,-0.20
2022-12-13T18:14:02.195Z,-0.10
2022-12-13T18:16:36.306Z,-0.10
2022-12-13T18:19:06.708Z,-0.20
2022-12-13T18:21:34.403Z,-0.20
2022-12-13T18:24:01.416Z,-0.20
2022-12-13T18:26:28.475Z,-0.10
2022-12-13T18:28:55.522Z,-0.30
2022-12-13T18:31:24.606Z,-0.20
2022-12-13T18:33:53.419Z,-0.20
2022-12-13T18:36:23.116Z,-0.20
2022-12-13T18:38:50.140Z,-0.20
2022-12-13T18:41:24.968Z,-0.20
2022-12-13T18:44:01.810Z,-0.20
2022-12-13T18:46:30.832Z,-0.30
2022-12-13T18:48:58.088Z,-0.50
2022-12-13T18:51:25.583Z,-0.30
2022-12-13T18:53:52.541Z,-0.40
2022-12-13T18:56:22.001Z,-0.30
2022-12-13T18:58:49.752Z,-0.40
2022-12-13T19:01:17.406Z,-0.30
2022-12-13T19:03:46.442Z,-0.20
2022-12-13T19:06:22.791Z,-0.50
2022-12-13T19:08:54.205Z,-0.40
2022-12-13T19:11:21.647Z,-0.40
2022-12-13T19:13:49.750Z,-0.40
2022-12-13T19:16:23.776Z,-0.50
2022-12-13T19:18:53.215Z,-0.40
2022-12-13T19:21:21.659Z,-0.40
2022-12-13T19:23:56.493Z,-0.50
2022-12-13T19:26:25.524Z,-0.60
2022-12-13T19:28:52.400Z,-0.50
2022-12-13T19:31:24.247Z,-0.50
2022-12-13T19:34:02.814Z,-0.50
2022-12-13T19:36:31.477Z,-0.50
2022-12-13T19:38:58.498Z,-0.60
2022-12-13T19:41:26.285Z,-0.60
2022-12-13T19:43:54.310Z,-0.50
2022-12-13T19:46:21.792Z,-0.50
2022-12-13T19:48:48.798Z,-0.60
2022-12-13T19:51:15.795Z,-0.60
2022-12-13T19:53:42.725Z,-0.60
2022-12-13T19:56:11.919Z,-0.70
2022-12-13T19:58:39.755Z,-0.70
2022-12-13T20:01:07.931Z,-0.60
2022-12-13T20:03:36.687Z,-0.60
2022-12-13T20:06:05.982Z,-0.50
2022-12-13T20:08:33.087Z,-0.70
2022-12-13T20:11:05.570Z,-0.70
2022-12-13T20:13:32.580Z,-0.80
2022-12-13T20:15:59.786Z,-0.70
2022-12-13T20:18:26.872Z,-0.50
2022-12-13T20:21:13.602Z,-0.60
2022-12-13T20:23:49.084Z,-0.50
2022-12-13T20:26:20.308Z,-0.50
2022-12-13T20:28:47.834Z,-0.50
2022-12-13T20:31:21.196Z,-0.50
2022-12-13T20:33:48.548Z,-0.60
2022-12-13T20:36:26.716Z,-0.50
2022-12-13T20:38:56.364Z,-0.60
2022-12-13T20:41:25.455Z,-0.60
2022-12-13T20:43:54.212Z,-0.80
2022-12-13T20:46:23.115Z,-0.70
2022-12-13T20:48:51.202Z,-0.70
2022-12-13T20:51:20.725Z,-0.70
2022-12-13T20:53:50.888Z,-0.60
2022-12-13T20:56:23.334Z,-0.70
2022-12-13T20:59:16.932Z,-0.60
2022-12-13T21:01:48.856Z,-0.60
2022-12-13T21:04:16.080Z,-0.70
2022-12-13T21:06:43.023Z,-0.60
2022-12-13T21:09:11.395Z,-0.60
2022-12-13T21:11:39.676Z,-0.60
2022-12-13T21:14:23.025Z,-0.50
2022-12-13T21:16:51.382Z,-0.60
2022-12-13T21:19:33.065Z,-0.70
2022-12-13T21:22:02.982Z,-0.50
2022-12-13T21:24:30.140Z,-0.60
2022-12-13T21:26:57.615Z,-0.60
2022-12-13T21:29:24.563Z,-0.60
2022-12-13T21:31:52.557Z,-0.60
2022-12-13T21:34:20.415Z,-0.60
2022-12-13T21:36:49.513Z,-0.60
2022-12-13T21:39:24.852Z,-0.60
2022-12-13T21:41:52.543Z,-0.60
2022-12-13T21:44:19.837Z,-0.70
2022-12-13T21:47:11.298Z,-0.60
2022-12-13T21:49:33.813Z,-0.70
2022-12-13T21:52:00.637Z,-0.70
2022-12-13T21:54:27.443Z,-0.80
2022-12-13T21:57:13.132Z,-0.80
2022-12-13T21:59:40.260Z,-0.70
2022-12-13T22:02:16.299Z,-0.50
2022-12-13T22:04:44.899Z,-0.40
2022-12-13T22:07:24.137Z,-0.40
2022-12-13T22:09:52.445Z,-0.50
2022-12-13T22:12:19.315Z,-0.40
2022-12-13T22:14:46.592Z,-0.40
2022-12-13T22:17:13.721Z,-0.40
2022-12-13T22:19:40.515Z,-0.30
2022-12-13T22:22:07.750Z,-0.30
2022-12-13T22:24:34.638Z,-0.30
2022-12-13T22:27:01.456Z,-0.40
2022-12-13T22:29:28.415Z,-0.30
2022-12-13T22:31:55.368Z,-0.50
2022-12-13T22:34:22.249Z,-0.40
2022-12-13T22:36:50.302Z,-0.40
2022-12-13T22:39:19.628Z,-0.40
2022-12-13T22:41:47.331Z,-0.40
2022-12-13T22:44:15.791Z,-0.30
2022-12-13T22:46:42.776Z,-0.30
2022-12-13T22:49:10.618Z,-0.30
2022-12-13T22:51:38.449Z,-0.40
2022-12-13T22:54:05.462Z,-0.40
2022-12-13T22:56:32.595Z,-0.40
2022-12-13T22:59:04.461Z,-0.50
2022-12-13T23:01:34.596Z,-0.40
2022-12-13T23:04:01.737Z,-0.30
2022-12-13T23:06:31.030Z,-0.30
2022-12-13T23:09:00.369Z,-0.30
2022-12-13T23:11:47.238Z,-0.40
2022-12-13T23:14:17.477Z,-0.40
2022-12-13T23:16:44.747Z,-0.40
2022-12-13T23:19:40.924Z,-0.40
2022-12-13T23:22:01.821Z,-0.50
2022-12-13T23:24:28.756Z,-0.50
2022-12-13T23:26:55.497Z,-0.40
2022-12-13T23:29:22.276Z,-0.40
2022-12-13T23:31:49.488Z,-0.50
2022-12-13T23:34:16.577Z,-0.50
2022-12-13T23:36:43.341Z,-0.50
2022-12-13T23:39:11.179Z,-0.50
2022-12-13T23:41:38.093Z,-0.50
2022-12-13T23:44:05.173Z,-0.50
2022-12-13T23:46:35.536Z,-0.50
2022-12-13T23:49:04.796Z,-0.50
2022-12-13T23:51:32.420Z,-0.50
2022-12-13T23:53:59.325Z,-0.50
2022-12-13T23:56:26.290Z,-0.50
2022-12-13T23:58:53.157Z,-0.50
